CheckWX is a tool to help pilots better visualize weather data.  It is not intended as a substitute for an official pre-flight weather briefing.

08:23:08 UTC

KHEY METAR
Hanchey AHP (Fort Rucker) Heliport
Fort Rucker Ozark, Alabama, USA
Current

25 mins ago

KHEY 120758Z AUTO 07010KT 10SM BKN120 07/02 A3037 RMK AO2 SLP288 T00730018
Observed
Dec-12 @ 07:58 UTC
Wind
  • 070° at 10 KTS
Visibility
10 SM
Flight Rules
VFR
Cloud Levels
  • Broken at 12,000' AGL
Temperature
C / 45°F
Dewpoint
C / 36°F
Humidity
71%
Altimeter
30.37" Hg
Pressure
1028.42 hPa
Previous

49 mins ago

KHEY 120734Z AUTO 06009KT 10SM SCT130 07/01 A3037 RMK AO2 SLP288
Observed
Dec-12 @ 07:34 UTC
Wind
  • 060° at 9 KTS
Visibility
10 SM
Flight Rules
VFR
Cloud Levels
  • Scattered at 13,000' AGL
Temperature
C / 45°F
Dewpoint
C / 34°F
Humidity
66%
Altimeter
30.37" Hg
Pressure
1028.42 hPa
Previous

1 hour ago

KHEY 120658Z AUTO 08006KT 10SM FEW130 07/00 A3039 RMK AO2 SLP294 T00681004
Observed
Dec-12 @ 06:58 UTC
Wind
  • 080° at 6 KTS
Visibility
10 SM
Flight Rules
VFR
Cloud Levels
  • Few at 13,000' AGL
Temperature
C / 45°F
Dewpoint
-0°C / 32°F
Humidity
61%
Altimeter
30.39" Hg
Pressure
1029.12 hPa